Randy Martin — WDB2136 — position and weather

sailwx.info

Track history (hours):
 
Tides and Currents Weather Stations Pressure Air Temp Water Temp Dewpoint Dewpoint Depression Visibility Wind Speed Wind Dir Waves Ship Positions

Randy Martin

Owner: BLESSEY ENTERPRISES INC, HARAHAN, LA. More information available from US FCC via Universal Licensing System.

Last reported at 2017-Sep-24 23:39 UTC. Time now 2017-Sep-25 15:19 UTC.
Position N 29°47' W 095°05'.

Length 25 m.

MMSI: 365824084.

Date/timePositionNaut miles runAvg speedWind from/ knotsBaromVisibWave heightAir tempDewpointWater temp
2017-Sep-24 23:39N 29°47' W 095°05'0 1.1
2017-Sep-24 23:28N 29°47' W 095°05'4 1.1
2017-Sep-24 19:16N 29°44' W 095°08'  
2017-Sep-21 20:21N 29°47' W 095°05'0 0.1
2017-Sep-21 19:54N 29°47' W 095°05'0 0.5
2017-Sep-21 19:29N 29°47' W 095°05'0 0.0
2017-Sep-20 22:09N 29°47' W 095°05'0 0.6
2017-Sep-20 21:48N 29°47' W 095°05'0 0.0
2017-Sep-20 21:26N 29°47' W 095°05'5 2.6
2017-Sep-20 19:40N 29°44' W 095°08'0 0.2
2017-Sep-20 19:28N 29°44' W 095°08'0 0.1
2017-Sep-20 19:00N 29°44' W 095°08'0 0.0
2017-Sep-20 18:30N 29°44' W 095°08'0 0.0
2017-Sep-20 18:00N 29°44' W 095°08'0 0.0
2017-Sep-20 17:30N 29°44' W 095°08'0 0.0
2017-Sep-20 17:00N 29°44' W 095°08'0 0.0
2017-Sep-20 16:30N 29°44' W 095°08'0 0.0
2017-Sep-20 16:00N 29°44' W 095°08'0 0.0
2017-Sep-20 15:30N 29°44' W 095°08'0 0.0
2017-Sep-20 15:00N 29°44' W 095°08'0 0.0
2017-Sep-20 14:01N 29°44' W 095°08'0 0.0
2017-Sep-20 13:30N 29°44' W 095°08'0 0.0
2017-Sep-20 13:00N 29°44' W 095°08'0 0.0
2017-Sep-20 12:30N 29°44' W 095°08'0 0.0
2017-Sep-20 12:00N 29°44' W 095°08'0 0.0
2017-Sep-20 11:30N 29°44' W 095°08'0 0.0
2017-Sep-20 11:01N 29°44' W 095°08'0 0.0
2017-Sep-20 10:30N 29°44' W 095°08'0 0.0
2017-Sep-20 10:01N 29°44' W 095°08'0 0.0
2017-Sep-20 09:30N 29°44' W 095°08'0 0.0
2017-Sep-20 09:00N 29°44' W 095°08'0 0.0
2017-Sep-20 08:30N 29°44' W 095°08'0 0.0
2017-Sep-20 08:00N 29°44' W 095°08'0 0.0
2017-Sep-20 07:30N 29°44' W 095°08'0 0.0
2017-Sep-20 07:00N 29°44' W 095°08'0 0.0
2017-Sep-20 06:30N 29°44' W 095°08'0 0.0
2017-Sep-20 06:00N 29°44' W 095°08'0 0.0
2017-Sep-20 05:30N 29°44' W 095°08'0 0.0
2017-Sep-20 05:01N 29°44' W 095°08'0 0.0
2017-Sep-20 04:30N 29°44' W 095°08'0 0.0
2017-Sep-20 04:00N 29°44' W 095°08'0 0.0
2017-Sep-20 03:30N 29°44' W 095°08'0 0.0
2017-Sep-20 03:01N 29°44' W 095°08'0 0.0
2017-Sep-20 02:31N 29°44' W 095°08'0 0.0
2017-Sep-20 02:00N 29°44' W 095°08'0 0.0
2017-Sep-20 01:30N 29°44' W 095°08'0 0.0
2017-Sep-19 14:38N 29°44' W 095°08'0 0.0
2017-Sep-19 10:31N 29°44' W 095°08'0 0.0
2017-Sep-19 08:29N 29°44' W 095°08'0 0.0
2017-Sep-19 07:45N 29°44' W 095°08'0 0.1
2017-Sep-19 07:04N 29°44' W 095°08'0 0.1
2017-Sep-19 06:14N 29°44' W 095°08'3 6.3
2017-Sep-19 05:45N 29°46' W 095°05'2 5.8
2017-Sep-19 05:23N 29°44' W 095°03'0 0.0
2017-Sep-18 05:36N 29°44' W 095°03'4 0.1
2017-Sep-16 18:08N 29°47' W 095°05'0 0.2
2017-Sep-16 17:44N 29°47' W 095°05'1 0.7
2017-Sep-16 16:33N 29°47' W 095°05'0 0.4
2017-Sep-16 16:26N 29°47' W 095°05'1 1.3
2017-Sep-16 15:38N 29°46' W 095°04'2 0.6
2017-Sep-16 13:09N 29°44' W 095°03'3 0.1
2017-Sep-15 10:54N 29°47' W 095°05'1 0.2
2017-Sep-15 08:10N 29°47' W 095°05'  
Track history (hours):
 
Tides and Currents Weather Stations Pressure Air Temp Water Temp Dewpoint Dewpoint Depression Visibility Wind Speed Wind Dir Waves Ship Positions

Randy Martin

Owner: BLESSEY ENTERPRISES INC, HARAHAN, LA. More information available from US FCC via Universal Licensing System.

Last reported at 2017-Sep-24 23:39 UTC. Time now 2017-Sep-25 15:19 UTC.
Position N 29°47' W 095°05'.

Length 25 m.

MMSI: 365824084.

Date/timePositionNaut miles runAvg speedWind from/ knotsBaromVisibWave heightAir tempDewpointWater temp
2017-Sep-24 23:39N 29°47' W 095°05'0 1.1
2017-Sep-24 23:28N 29°47' W 095°05'4 1.1
2017-Sep-24 19:16N 29°44' W 095°08'  
2017-Sep-21 20:21N 29°47' W 095°05'0 0.1
2017-Sep-21 19:54N 29°47' W 095°05'0 0.5
2017-Sep-21 19:29N 29°47' W 095°05'0 0.0
2017-Sep-20 22:09N 29°47' W 095°05'0 0.6
2017-Sep-20 21:48N 29°47' W 095°05'0 0.0
2017-Sep-20 21:26N 29°47' W 095°05'5 2.6
2017-Sep-20 19:40N 29°44' W 095°08'0 0.2
2017-Sep-20 19:28N 29°44' W 095°08'0 0.1
2017-Sep-20 19:00N 29°44' W 095°08'0 0.0
2017-Sep-20 18:30N 29°44' W 095°08'0 0.0
2017-Sep-20 18:00N 29°44' W 095°08'0 0.0
2017-Sep-20 17:30N 29°44' W 095°08'0 0.0
2017-Sep-20 17:00N 29°44' W 095°08'0 0.0
2017-Sep-20 16:30N 29°44' W 095°08'0 0.0
2017-Sep-20 16:00N 29°44' W 095°08'0 0.0
2017-Sep-20 15:30N 29°44' W 095°08'0 0.0
2017-Sep-20 15:00N 29°44' W 095°08'0 0.0
2017-Sep-20 14:01N 29°44' W 095°08'0 0.0
2017-Sep-20 13:30N 29°44' W 095°08'0 0.0
2017-Sep-20 13:00N 29°44' W 095°08'0 0.0
2017-Sep-20 12:30N 29°44' W 095°08'0 0.0
2017-Sep-20 12:00N 29°44' W 095°08'0 0.0
2017-Sep-20 11:30N 29°44' W 095°08'0 0.0
2017-Sep-20 11:01N 29°44' W 095°08'0 0.0
2017-Sep-20 10:30N 29°44' W 095°08'0 0.0
2017-Sep-20 10:01N 29°44' W 095°08'0 0.0
2017-Sep-20 09:30N 29°44' W 095°08'0 0.0
2017-Sep-20 09:00N 29°44' W 095°08'0 0.0
2017-Sep-20 08:30N 29°44' W 095°08'0 0.0
2017-Sep-20 08:00N 29°44' W 095°08'0 0.0
2017-Sep-20 07:30N 29°44' W 095°08'0 0.0
2017-Sep-20 07:00N 29°44' W 095°08'0 0.0
2017-Sep-20 06:30N 29°44' W 095°08'0 0.0
2017-Sep-20 06:00N 29°44' W 095°08'0 0.0
2017-Sep-20 05:30N 29°44' W 095°08'0 0.0
2017-Sep-20 05:01N 29°44' W 095°08'0 0.0
2017-Sep-20 04:30N 29°44' W 095°08'0 0.0
2017-Sep-20 04:00N 29°44' W 095°08'0 0.0
2017-Sep-20 03:30N 29°44' W 095°08'0 0.0
2017-Sep-20 03:01N 29°44' W 095°08'0 0.0
2017-Sep-20 02:31N 29°44' W 095°08'0 0.0
2017-Sep-20 02:00N 29°44' W 095°08'0 0.0
2017-Sep-20 01:30N 29°44' W 095°08'0 0.0
2017-Sep-19 14:38N 29°44' W 095°08'0 0.0
2017-Sep-19 10:31N 29°44' W 095°08'0 0.0
2017-Sep-19 08:29N 29°44' W 095°08'0 0.0
2017-Sep-19 07:45N 29°44' W 095°08'0 0.1
2017-Sep-19 07:04N 29°44' W 095°08'0 0.1
2017-Sep-19 06:14N 29°44' W 095°08'3 6.3
2017-Sep-19 05:45N 29°46' W 095°05'2 5.8
2017-Sep-19 05:23N 29°44' W 095°03'0 0.0
2017-Sep-18 05:36N 29°44' W 095°03'4 0.1
2017-Sep-16 18:08N 29°47' W 095°05'0 0.2
2017-Sep-16 17:44N 29°47' W 095°05'1 0.7
2017-Sep-16 16:33N 29°47' W 095°05'0 0.4
2017-Sep-16 16:26N 29°47' W 095°05'1 1.3
2017-Sep-16 15:38N 29°46' W 095°04'2 0.6
2017-Sep-16 13:09N 29°44' W 095°03'3 0.1
2017-Sep-15 10:54N 29°47' W 095°05'1 0.2
2017-Sep-15 08:10N 29°47' W 095°05'  

Dump ship's entire track history